Terminal Aerodrome Forecast
Issued by NWS Hastings, NE

Home | Current Version | Previous Version | Text Only | Print | Product List | Glossary On
Versions: 1 2 3 4 5 6 7 8 9 10 11 12 13 14 15 16 17 18 19 20 21 22 23 24 25 26 27 28 29 30
000
FTUS43 KGID 030406 AAA
TAFGRI
TAF AMD
KGRI 030406Z 0304/0324 16016G24KT P6SM BKN050
     FM030700 16016G24KT 6SM BR SCT005 BKN012
     FM031000 16016G24KT 5SM -FZDZ BR OVC005
     FM031600 35025G34KT P6SM SCT020 BKN060=

USA.gov is the U.S. government's official web portal to all federal, state and local government web resources and services.